createdAt,value
2019-06-07T00:00:52.870Z,88.00
2019-06-07T00:03:28.919Z,87.20
2019-06-07T00:05:48.528Z,87.40
2019-06-07T00:08:26.970Z,87.60
2019-06-07T00:10:43.651Z,87.80
2019-06-07T00:13:12.920Z,88.10
2019-06-07T00:15:39.882Z,88.50
2019-06-07T00:18:13.007Z,88.50
2019-06-07T00:20:35.042Z,88.80
2019-06-07T00:23:02.646Z,89.50
2019-06-07T00:25:30.228Z,88.80
2019-06-07T00:27:57.839Z,88.80
2019-06-07T00:30:51.099Z,89.00
2019-06-07T00:32:53.061Z,89.20
2019-06-07T00:35:22.448Z,89.30
2019-06-07T00:37:48.233Z,89.60
2019-06-07T00:40:20.917Z,89.70
2019-06-07T00:42:43.449Z,89.50
2019-06-07T00:45:11.934Z,89.40
2019-06-07T00:47:38.639Z,89.40
2019-06-07T00:50:06.228Z,89.40
2019-06-07T00:55:01.410Z,89.80
2019-06-07T00:57:29.769Z,90.40
2019-06-07T00:59:57.362Z,90.40
2019-06-07T01:02:31.068Z,90.30
2019-06-07T01:04:54.090Z,90.40
2019-06-07T01:07:22.472Z,90.40
2019-06-07T01:09:49.297Z,90.60
2019-06-07T01:12:19.413Z,90.70
2019-06-07T01:14:44.560Z,90.80
2019-06-07T01:17:33.098Z,90.70
2019-06-07T01:19:48.948Z,90.60
2019-06-07T01:22:20.702Z,90.60
2019-06-07T01:24:46.099Z,90.50
2019-06-07T01:27:13.690Z,90.40
2019-06-07T01:29:41.297Z,90.30
2019-06-07T01:32:08.885Z,90.40
2019-06-07T01:34:36.496Z,89.80
2019-06-07T01:37:04.075Z,88.90
2019-06-07T01:39:32.056Z,88.90
2019-06-07T01:41:59.374Z,89.10
2019-06-07T01:44:28.016Z,89.30
2019-06-07T01:46:54.463Z,89.40
2019-06-07T01:49:22.811Z,89.70
2019-06-07T01:51:50.421Z,90.30
2019-06-07T01:56:45.609Z,90.50
2019-06-07T01:59:13.538Z,90.70
2019-06-07T02:01:41.586Z,90.90
2019-06-07T02:04:09.369Z,90.90
2019-06-07T02:06:37.020Z,90.90
2019-06-07T02:09:04.627Z,91.00
2019-06-07T02:11:33.664Z,91.10
2019-06-07T02:13:59.822Z,90.90
2019-06-07T02:16:30.400Z,90.50
2019-06-07T02:19:01.552Z,91.00
2019-06-07T02:21:25.997Z,91.00
2019-06-07T02:23:51.005Z,90.60
2019-06-07T02:26:20.417Z,90.60
2019-06-07T02:28:47.742Z,91.10
2019-06-07T02:31:15.324Z,91.10
2019-06-07T02:33:43.786Z,91.70
2019-06-07T02:36:11.369Z,91.30
2019-06-07T02:38:39.724Z,91.20
2019-06-07T02:41:07.341Z,91.20
2019-06-07T02:43:37.213Z,90.80
2019-06-07T02:46:23.948Z,91.00
2019-06-07T02:48:35.447Z,90.60
2019-06-07T02:50:58.519Z,90.50
2019-06-07T02:53:27.716Z,90.60
2019-06-07T02:58:22.098Z,90.20
2019-06-07T03:01:09.070Z,90.10
2019-06-07T03:03:17.330Z,90.00
2019-06-07T03:05:44.918Z,90.10
2019-06-07T03:08:12.505Z,90.90
2019-06-07T03:10:41.923Z,90.60
2019-06-07T03:13:07.716Z,90.70
2019-06-07T03:15:44.653Z,91.10
2019-06-07T03:18:07.055Z,90.80
2019-06-07T03:20:36.751Z,90.80
2019-06-07T03:23:02.264Z,91.00
2019-06-07T03:25:30.827Z,91.40
2019-06-07T03:27:57.466Z,91.30
2019-06-07T03:30:57.901Z,91.40
2019-06-07T03:32:52.675Z,91.60
2019-06-07T03:35:20.249Z,91.70
2019-06-07T03:37:48.389Z,91.90
2019-06-07T03:40:15.957Z,91.90
2019-06-07T03:42:43.541Z,92.00
2019-06-07T03:45:11.170Z,92.00
2019-06-07T03:47:42.488Z,92.10
2019-06-07T03:50:07.099Z,92.10
2019-06-07T03:52:38.599Z,92.30
2019-06-07T03:55:03.837Z,92.30
2019-06-07T03:58:27.127Z,92.30
2019-06-07T03:59:59.042Z,92.30
2019-06-07T04:02:27.853Z,92.40
2019-06-07T04:04:54.220Z,92.60
2019-06-07T04:07:22.611Z,92.30
2019-06-07T04:09:50.197Z,92.20
2019-06-07T04:12:17.787Z,92.20
2019-06-07T04:14:45.402Z,92.50
2019-06-07T04:17:12.982Z,92.20
2019-06-07T04:19:43.411Z,92.20
2019-06-07T04:22:08.169Z,92.30
2019-06-07T04:24:38.925Z,92.50
2019-06-07T04:27:04.238Z,92.50
2019-06-07T04:29:41.280Z,92.60
2019-06-07T04:32:00.130Z,92.60
2019-06-07T04:34:29.271Z,92.60
2019-06-07T04:36:59.275Z,92.70
2019-06-07T04:39:22.931Z,93.00
2019-06-07T04:41:50.548Z,92.60
2019-06-07T04:44:18.139Z,92.60
2019-06-07T04:46:45.730Z,92.70
2019-06-07T04:49:15.631Z,93.20
2019-06-07T04:51:43.243Z,93.20
2019-06-07T04:54:11.089Z,92.80
2019-06-07T04:56:44.118Z,92.80
2019-06-07T04:59:06.325Z,92.70
2019-06-07T05:01:34.857Z,92.70
2019-06-07T05:04:02.486Z,92.70
2019-06-07T05:06:30.088Z,92.70
2019-06-07T05:08:57.550Z,92.60
2019-06-07T05:11:25.149Z,92.60
2019-06-07T05:13:52.737Z,92.50
2019-06-07T05:16:20.366Z,92.30
2019-06-07T05:18:47.956Z,92.10
2019-06-07T05:21:15.968Z,92.00
2019-06-07T05:24:05.228Z,91.90
2019-06-07T05:26:11.892Z,91.60
2019-06-07T05:28:42.692Z,91.90
2019-06-07T05:31:07.983Z,91.60
2019-06-07T05:33:36.629Z,91.70
2019-06-07T05:36:02.295Z,91.30
2019-06-07T05:38:31.021Z,91.20
2019-06-07T05:40:57.507Z,91.30
2019-06-07T05:43:25.319Z,90.80
2019-06-07T05:45:52.878Z,90.60
2019-06-07T05:48:20.471Z,90.60
2019-06-07T05:50:56.532Z,90.20
2019-06-07T05:53:34.759Z,90.10
2019-06-07T05:56:04.181Z,90.00
2019-06-07T13:21:05.252Z,42.30
2019-06-07T13:23:32.927Z,42.10
2019-06-07T13:26:00.501Z,41.80
2019-06-07T13:28:28.977Z,41.70
2019-06-07T13:30:55.754Z,41.50
2019-06-07T13:33:25.623Z,41.50
2019-06-07T13:35:51.717Z,41.50
2019-06-07T13:38:25.108Z,41.70
2019-06-07T13:40:52.703Z,41.50
2019-06-07T13:43:21.377Z,41.70
2019-06-07T13:45:47.860Z,42.00
2019-06-07T13:48:16.997Z,42.30
2019-06-07T13:50:43.082Z,42.50
2019-06-07T13:53:10.657Z,42.90
2019-06-07T13:55:38.308Z,43.40
2019-06-07T13:58:05.888Z,44.10
2019-06-07T14:00:35.467Z,44.50
2019-06-07T14:03:03.067Z,44.50
2019-06-07T14:05:31.426Z,47.20
2019-06-07T14:07:59.012Z,47.30
2019-06-07T14:10:27.616Z,52.90
2019-06-07T14:12:55.002Z,52.80
2019-06-07T14:15:24.230Z,54.10
2019-06-07T14:17:51.017Z,56.30
2019-06-07T14:20:25.525Z,56.30
2019-06-07T14:22:46.756Z,57.00
2019-06-07T14:25:14.344Z,58.10
2019-06-07T14:27:41.945Z,59.70
2019-06-07T14:30:10.328Z,62.70
2019-06-07T14:32:41.795Z,63.30
2019-06-07T14:35:10.164Z,64.30
2019-06-07T14:37:38.533Z,64.60
2019-06-07T14:40:06.108Z,64.60
2019-06-07T14:42:34.490Z,66.30
2019-06-07T14:45:06.203Z,66.10
2019-06-07T14:47:31.984Z,65.60
2019-06-07T14:49:58.849Z,66.10
2019-06-07T14:52:26.408Z,65.10
2019-06-07T14:54:53.988Z,64.20
2019-06-07T14:57:21.658Z,63.00
2019-06-07T14:59:49.231Z,63.10
2019-06-07T15:02:16.813Z,62.60
2019-06-07T15:04:45.202Z,61.60
2019-06-07T15:07:15.508Z,61.60
2019-06-07T15:09:43.086Z,61.70
2019-06-07T15:12:24.227Z,62.50
2019-06-07T15:14:39.099Z,63.50
2019-06-07T15:17:06.986Z,63.40
2019-06-07T15:19:36.391Z,63.90
2019-06-07T15:22:02.143Z,64.20
2019-06-07T15:24:33.645Z,64.80
2019-06-07T15:26:57.350Z,65.80
2019-06-07T15:29:24.926Z,67.00
2019-06-07T15:31:52.562Z,68.00
2019-06-07T15:34:20.917Z,69.50
2019-06-07T15:36:48.508Z,69.50
2019-06-07T15:39:16.888Z,70.30
2019-06-07T15:41:45.523Z,70.90
2019-06-07T15:44:13.140Z,70.90
2019-06-07T15:46:41.521Z,71.70
2019-06-07T15:49:09.077Z,71.50
2019-06-07T15:51:38.647Z,71.60
2019-06-07T15:54:05.071Z,71.60
2019-06-07T15:56:32.653Z,71.60
2019-06-07T15:59:00.255Z,71.70
2019-06-07T16:01:28.168Z,71.80
2019-06-07T16:03:56.866Z,71.90
2019-06-07T16:06:24.486Z,71.70
2019-06-07T16:08:52.062Z,71.40
2019-06-07T16:11:19.694Z,71.80
2019-06-07T16:13:47.303Z,72.20
2019-06-07T16:16:14.903Z,73.10
2019-06-07T16:18:44.152Z,72.70
2019-06-07T16:21:10.083Z,73.20
2019-06-07T16:23:39.893Z,73.60
2019-06-07T16:26:07.378Z,74.40
2019-06-07T16:28:36.042Z,75.00
2019-06-07T16:31:02.603Z,76.20
2019-06-07T16:33:30.302Z,76.80
2019-06-07T16:35:58.020Z,76.40
2019-06-07T16:38:25.608Z,76.70
2019-06-07T16:40:53.211Z,77.10
2019-06-07T16:43:20.844Z,78.20
2019-06-07T16:45:49.027Z,77.80
2019-06-07T16:48:16.008Z,78.60
2019-06-07T16:50:45.056Z,79.00
2019-06-07T16:53:11.299Z,79.40
2019-06-07T16:55:38.842Z,79.80
2019-06-07T16:58:06.440Z,80.00
2019-06-07T17:00:34.015Z,80.20
2019-06-07T17:03:01.647Z,80.70
2019-06-07T17:05:29.226Z,81.50
2019-06-07T17:07:56.814Z,82.20
2019-06-07T17:10:24.465Z,82.50
2019-06-07T17:12:52.063Z,82.80
2019-06-07T17:15:19.645Z,83.00
2019-06-07T17:17:49.294Z,82.00
2019-06-07T17:20:15.621Z,81.90
2019-06-07T17:22:44.054Z,80.30
2019-06-07T17:25:10.845Z,79.40
2019-06-07T17:27:39.717Z,79.00
2019-06-07T17:30:06.829Z,78.90
2019-06-07T17:32:47.561Z,78.60
2019-06-07T17:35:02.134Z,77.90
2019-06-07T17:37:30.637Z,77.90
2019-06-07T17:39:58.240Z,77.90
2019-06-07T17:42:25.852Z,77.30
2019-06-07T17:44:53.491Z,77.20
2019-06-07T17:47:21.082Z,76.50
2019-06-07T17:49:49.955Z,76.50
2019-06-07T17:52:16.376Z,76.10
2019-06-07T17:54:43.963Z,76.00
2019-06-07T17:57:11.552Z,76.00
2019-06-07T17:59:39.161Z,76.30
2019-06-07T18:02:15.006Z,76.00
2019-06-07T18:04:34.386Z,75.90
2019-06-07T18:07:02.024Z,75.70
2019-06-07T18:09:29.637Z,75.80
2019-06-07T18:11:57.230Z,75.50
2019-06-07T18:14:25.636Z,75.90
2019-06-07T18:16:54.818Z,75.50
2019-06-07T18:19:21.734Z,75.50
2019-06-07T18:21:50.111Z,75.50
2019-06-07T18:24:16.955Z,75.40
2019-06-07T18:26:44.636Z,75.50
2019-06-07T18:29:12.249Z,75.10
2019-06-07T18:31:39.932Z,74.90
2019-06-07T18:34:07.523Z,75.10
2019-06-07T18:36:35.071Z,74.80
2019-06-07T18:39:02.725Z,74.40
2019-06-07T18:41:31.910Z,74.20
2019-06-07T18:43:59.536Z,74.00
2019-06-07T18:46:27.112Z,73.20
2019-06-07T18:48:54.824Z,72.90
2019-06-07T18:51:22.392Z,72.90
2019-06-07T18:53:49.979Z,72.80
2019-06-07T18:56:18.387Z,72.60
2019-06-07T18:58:47.136Z,72.60
2019-06-07T19:01:13.556Z,72.30
2019-06-07T19:03:41.178Z,72.20
2019-06-07T19:06:08.775Z,71.90
2019-06-07T19:08:36.353Z,72.10
2019-06-07T19:11:04.727Z,71.80
2019-06-07T19:13:32.302Z,71.80
2019-06-07T19:16:01.245Z,71.40
2019-06-07T19:18:28.848Z,71.40
2019-06-07T19:20:58.503Z,70.80
2019-06-07T19:23:25.004Z,71.00
2019-06-07T19:25:54.302Z,71.20
2019-06-07T19:28:20.940Z,71.10
2019-06-07T19:30:48.560Z,71.10
2019-06-07T19:33:16.150Z,71.00
2019-06-07T19:35:43.727Z,70.80
2019-06-07T19:38:12.127Z,70.80
2019-06-07T19:40:39.708Z,70.70
2019-06-07T19:43:07.316Z,70.60
2019-06-07T19:45:34.947Z,70.60
2019-06-07T19:48:02.896Z,70.30
2019-06-07T19:50:30.141Z,70.30
2019-06-07T19:52:59.087Z,70.20
2019-06-07T19:55:25.297Z,70.10
2019-06-07T19:57:53.326Z,69.60
2019-06-07T20:00:20.500Z,69.60
2019-06-07T20:02:48.080Z,69.40
2019-06-07T20:05:15.700Z,69.30
2019-06-07T20:07:43.283Z,69.40
2019-06-07T20:10:10.895Z,69.30
2019-06-07T20:12:38.514Z,69.00
2019-06-07T20:15:24.541Z,69.10
2019-06-07T20:17:33.678Z,69.20
2019-06-07T20:20:02.661Z,69.30
2019-06-07T20:22:28.881Z,69.20
2019-06-07T20:24:56.774Z,68.80
2019-06-07T20:27:24.092Z,68.30
2019-06-07T20:29:51.666Z,68.40
2019-06-07T20:32:19.291Z,68.50
2019-06-07T20:34:46.876Z,68.70
2019-06-07T20:37:14.458Z,68.50
2019-06-07T20:39:42.077Z,68.20
2019-06-07T20:42:09.651Z,68.30
2019-06-07T20:44:37.234Z,68.50
2019-06-07T20:47:06.147Z,68.70
2019-06-07T20:49:33.199Z,69.20
2019-06-07T20:52:00.820Z,69.20
2019-06-07T20:54:28.408Z,69.40
2019-06-07T20:56:55.985Z,69.90
2019-06-07T20:59:23.608Z,69.60
2019-06-07T21:01:51.189Z,69.70
2019-06-07T21:04:18.764Z,69.70
2019-06-07T21:06:46.389Z,69.50
2019-06-07T21:09:13.975Z,69.50
2019-06-07T21:11:41.555Z,69.60
2019-06-07T21:14:10.239Z,69.60
2019-06-07T21:16:36.745Z,69.60
2019-06-07T21:19:04.359Z,69.60
2019-06-07T21:21:32.709Z,70.60
2019-06-07T21:24:00.537Z,70.60
2019-06-07T21:26:28.448Z,71.00
2019-06-07T21:28:56.026Z,70.80
2019-06-07T21:31:23.605Z,70.80
2019-06-07T21:33:51.223Z,70.60
2019-06-07T21:36:18.819Z,70.80
2019-06-07T21:38:47.172Z,71.00
2019-06-07T21:41:15.127Z,71.00
2019-06-07T21:43:42.718Z,70.50
2019-06-07T21:46:15.504Z,70.50
2019-06-07T21:48:38.671Z,70.90
2019-06-07T21:51:07.016Z,71.00
2019-06-07T21:53:34.636Z,70.90
2019-06-07T21:56:02.915Z,71.10
2019-06-07T21:58:29.799Z,71.50
2019-06-07T22:01:00.331Z,70.90
2019-06-07T22:03:27.904Z,70.90
2019-06-07T22:05:55.491Z,71.00
2019-06-07T22:08:23.099Z,71.20
2019-06-07T22:10:50.681Z,71.30
2019-06-07T22:13:18.265Z,71.50
2019-06-07T22:15:46.198Z,71.60
2019-06-07T22:18:14.659Z,71.90
2019-06-07T22:20:41.412Z,72.00
2019-06-07T22:23:08.986Z,72.20
2019-06-07T22:25:36.562Z,72.30
2019-06-07T22:28:04.214Z,72.40
2019-06-07T22:30:31.804Z,72.40
2019-06-07T22:32:59.390Z,72.40
2019-06-07T22:35:27.018Z,72.50
2019-06-07T22:37:54.607Z,72.40
2019-06-07T22:40:22.946Z,71.60
2019-06-07T22:42:50.707Z,71.50
2019-06-07T22:45:18.980Z,71.20
2019-06-07T22:47:46.727Z,70.60
2019-06-07T22:50:14.494Z,70.50
2019-06-07T22:52:41.907Z,70.40
2019-06-07T22:55:10.065Z,70.30
2019-06-07T22:57:51.931Z,69.80
2019-06-07T23:00:20.963Z,69.80
2019-06-07T23:02:47.163Z,69.90
2019-06-07T23:05:14.799Z,69.80
2019-06-07T23:07:42.345Z,69.90
2019-06-07T23:10:11.323Z,69.90
2019-06-07T23:12:37.901Z,69.80
2019-06-07T23:15:09.258Z,69.70
2019-06-07T23:17:35.586Z,69.70
2019-06-07T23:20:09.654Z,69.90
2019-06-07T23:22:36.700Z,70.20
2019-06-07T23:25:05.049Z,70.10
2019-06-07T23:27:32.666Z,70.70
2019-06-07T23:30:00.274Z,70.70
2019-06-07T23:32:27.898Z,70.90
2019-06-07T23:34:55.469Z,71.10
2019-06-07T23:37:23.053Z,71.20
2019-06-07T23:39:50.672Z,71.40
2019-06-07T23:42:18.252Z,71.60
2019-06-07T23:44:45.838Z,71.90
2019-06-07T23:47:15.518Z,71.70
2019-06-07T23:49:41.040Z,71.50
2019-06-07T23:52:08.637Z,70.90
2019-06-07T23:54:36.257Z,70.80
2019-06-07T23:57:03.838Z,70.90
2019-06-07T23:59:31.462Z,71.00
